createdAt,value
2019-05-26T00:00:34.812Z,5.30
2019-05-26T00:05:40.761Z,5.08
2019-05-26T00:10:46.526Z,5.15
2019-05-26T00:15:52.604Z,4.25
2019-05-26T00:20:58.779Z,4.60
2019-05-26T00:26:04.749Z,4.70
2019-05-26T00:31:11.842Z,4.33
2019-05-26T00:36:17.916Z,4.92
2019-05-26T00:41:23.887Z,5.15
2019-05-26T00:46:29.755Z,4.87
2019-05-26T00:51:35.629Z,5.03
2019-05-26T00:56:41.496Z,4.75
2019-05-26T01:01:47.465Z,3.90
2019-05-26T01:06:56.711Z,3.12
2019-05-26T01:17:07.562Z,3.22
2019-05-26T01:22:13.599Z,3.17
2019-05-26T01:27:19.649Z,3.10
2019-05-26T01:32:25.562Z,3.22
2019-05-26T01:37:31.748Z,2.70
2019-05-26T01:42:37.789Z,3.52
2019-05-26T01:47:43.724Z,3.60
2019-05-26T01:52:49.832Z,3.25
2019-05-26T01:57:55.704Z,3.00
2019-05-26T02:03:01.672Z,3.30
2019-05-26T02:08:12.010Z,3.33
2019-05-26T02:13:18.124Z,3.75
2019-05-26T02:18:24.296Z,3.33
2019-05-26T02:23:30.170Z,3.42
2019-05-26T02:28:36.032Z,4.10
2019-05-26T02:33:41.802Z,4.28
2019-05-26T02:39:00.944Z,4.67
2019-05-26T02:43:55.304Z,5.67
2019-05-26T02:49:01.467Z,4.30
2019-05-26T02:54:07.553Z,4.25
2019-05-26T02:59:13.524Z,5.03
2019-05-26T03:04:19.571Z,5.03
2019-05-26T03:09:26.976Z,5.58
2019-05-26T03:14:35.710Z,5.12
2019-05-26T03:19:43.093Z,5.00
2019-05-26T03:24:54.494Z,6.37
2019-05-26T03:30:00.489Z,6.00
2019-05-26T03:35:10.961Z,5.87
2019-05-26T03:40:17.139Z,5.30
2019-05-26T03:45:42.254Z,5.65
2019-05-26T03:50:48.126Z,5.40
2019-05-26T03:55:53.995Z,5.40
2019-05-26T04:00:59.864Z,6.35
2019-05-26T04:06:06.255Z,6.28
2019-05-26T04:11:12.503Z,5.83
2019-05-26T04:16:18.391Z,5.70
2019-05-26T04:21:24.273Z,5.45
2019-05-26T04:26:30.226Z,5.90
2019-05-26T04:31:36.502Z,5.95
2019-05-26T04:36:42.590Z,5.85
2019-05-26T04:41:48.778Z,5.62
2019-05-26T04:46:54.840Z,5.17
2019-05-26T04:52:01.112Z,6.22
2019-05-26T04:57:07.187Z,5.50
2019-05-26T05:02:13.253Z,5.53
2019-05-26T05:07:19.390Z,6.35
2019-05-26T05:12:25.512Z,6.65
2019-05-26T05:17:31.368Z,5.92
2019-05-26T05:22:37.443Z,5.50
2019-05-26T05:27:43.439Z,6.12
2019-05-26T05:32:49.692Z,6.28
2019-05-26T05:37:55.673Z,6.45
2019-05-26T05:43:02.184Z,5.80
2019-05-26T05:48:08.551Z,6.03
2019-05-26T05:53:14.561Z,6.08
2019-05-26T05:58:22.007Z,5.83
2019-05-26T06:03:27.974Z,5.87
2019-05-26T06:08:33.945Z,5.35
2019-05-26T06:13:40.849Z,6.10
2019-05-26T06:18:47.330Z,6.30
2019-05-26T06:23:53.293Z,6.33
2019-05-26T06:28:59.272Z,5.97
2019-05-26T06:34:05.599Z,5.97
2019-05-26T06:39:11.512Z,7.10
2019-05-26T06:44:18.032Z,5.78
2019-05-26T06:49:24.443Z,6.20
2019-05-26T06:54:30.652Z,6.00
2019-05-26T06:59:36.625Z,5.83
2019-05-26T07:04:43.110Z,5.87
2019-05-26T07:09:49.443Z,6.45
2019-05-26T07:14:56.490Z,7.40
2019-05-26T07:20:02.791Z,6.70
2019-05-26T07:25:09.556Z,8.03
2019-05-26T07:30:16.809Z,7.78
2019-05-26T07:35:22.968Z,7.95
2019-05-26T07:40:29.412Z,7.40
2019-05-26T07:45:35.313Z,7.72
2019-05-26T07:50:41.258Z,8.00
2019-05-26T07:55:47.422Z,8.20
2019-05-26T08:00:53.501Z,7.78
2019-05-26T08:05:59.471Z,6.80
2019-05-26T08:11:05.968Z,6.50
2019-05-26T08:16:11.982Z,7.55
2019-05-26T08:21:18.101Z,6.50
2019-05-26T08:26:24.308Z,4.83
2019-05-26T08:31:30.517Z,4.35
2019-05-26T08:36:36.927Z,4.35
2019-05-26T08:41:43.005Z,3.92
2019-05-26T08:46:49.111Z,3.40
2019-05-26T08:51:55.463Z,3.50
2019-05-26T08:57:01.531Z,3.90
2019-05-26T09:02:07.603Z,3.83
2019-05-26T09:07:13.692Z,3.83
2019-05-26T09:12:19.970Z,3.52
2019-05-26T09:17:26.053Z,3.60
2019-05-26T09:22:32.098Z,3.15
2019-05-26T09:27:38.351Z,3.20
2019-05-26T09:32:44.382Z,2.90
2019-05-26T09:37:51.349Z,2.07
2019-05-26T09:42:57.416Z,3.17
2019-05-26T09:48:03.512Z,2.92
2019-05-26T09:53:09.466Z,3.47
2019-05-26T09:58:15.437Z,3.60
2019-05-26T10:03:21.411Z,2.98
2019-05-26T10:08:27.480Z,3.00
2019-05-26T10:13:33.652Z,2.50
2019-05-26T10:18:40.509Z,2.90
2019-05-26T10:23:46.742Z,3.25
2019-05-26T10:28:52.791Z,2.58
2019-05-26T10:33:58.822Z,3.08
2019-05-26T10:39:06.892Z,3.15
2019-05-26T10:44:12.957Z,3.00
2019-05-26T10:49:19.195Z,2.98
2019-05-26T10:54:25.424Z,2.25
2019-05-26T10:59:31.591Z,3.00
2019-05-26T11:04:37.659Z,1.95
2019-05-26T11:09:43.845Z,2.40
2019-05-26T11:14:49.852Z,2.58
2019-05-26T11:19:55.887Z,2.65
2019-05-26T11:25:02.337Z,2.47
2019-05-26T11:30:11.743Z,2.35
2019-05-26T11:35:19.328Z,2.05
2019-05-26T11:40:25.806Z,2.30
2019-05-26T11:45:32.417Z,2.90
2019-05-26T11:50:38.486Z,2.62
2019-05-26T11:55:45.255Z,1.95
2019-05-26T12:00:51.128Z,2.42
2019-05-26T12:05:57.091Z,2.27
2019-05-26T12:11:03.402Z,2.20
2019-05-26T12:16:09.465Z,2.92
2019-05-26T12:21:15.430Z,3.33
2019-05-26T12:26:21.595Z,6.87
2019-05-26T12:31:27.567Z,2.40
2019-05-26T12:36:38.907Z,7.33
2019-05-26T12:41:42.581Z,2.45
2019-05-26T12:46:48.649Z,2.47
2019-05-26T12:51:55.068Z,2.33
2019-05-26T12:57:01.311Z,2.30
2019-05-26T13:02:07.608Z,3.47
2019-05-26T13:07:13.460Z,2.22
2019-05-26T13:12:19.686Z,1.80
2019-05-26T13:17:25.657Z,3.30
2019-05-26T13:22:31.690Z,3.17
2019-05-26T13:27:37.546Z,5.47
2019-05-26T13:32:43.513Z,2.30
2019-05-26T13:37:49.623Z,5.00
2019-05-26T13:42:55.686Z,2.17
2019-05-26T13:48:02.040Z,3.33
2019-05-26T13:53:08.134Z,2.62
2019-05-26T13:58:14.282Z,1.90
2019-05-26T14:03:20.259Z,2.12
2019-05-26T14:08:26.255Z,5.35
2019-05-26T14:13:32.226Z,5.85
2019-05-26T14:18:38.657Z,6.22
2019-05-26T14:23:44.755Z,3.33
2019-05-26T14:28:50.826Z,2.33
2019-05-26T14:33:56.701Z,3.33
2019-05-26T14:39:02.693Z,2.30
2019-05-26T14:44:08.941Z,2.33
2019-05-26T14:49:15.025Z,2.45
2019-05-26T14:54:21.089Z,2.30
2019-05-26T14:59:27.298Z,3.30
2019-05-26T15:04:33.339Z,3.80
2019-05-26T15:09:39.310Z,3.10
2019-05-26T15:14:45.382Z,2.83
2019-05-26T15:19:51.466Z,2.60
2019-05-26T15:24:57.428Z,2.35
2019-05-26T15:30:04.734Z,2.33
2019-05-26T15:35:12.113Z,2.02
2019-05-26T15:40:19.249Z,1.80
2019-05-26T15:45:25.347Z,2.33
2019-05-26T15:50:31.589Z,3.60
2019-05-26T15:55:39.866Z,2.60
2019-05-26T16:00:53.417Z,2.70
2019-05-26T16:06:03.419Z,3.10
2019-05-26T16:11:09.864Z,2.37
2019-05-26T16:16:16.192Z,2.35
2019-05-26T16:21:27.968Z,2.67
2019-05-26T16:26:31.093Z,3.20
2019-05-26T16:31:37.065Z,2.92
2019-05-26T16:36:43.459Z,3.20
2019-05-26T16:41:49.646Z,3.60
2019-05-26T16:46:57.070Z,3.22
2019-05-26T16:52:03.304Z,2.98
2019-05-26T16:57:09.689Z,9.83
2019-05-26T17:02:17.631Z,5.10
2019-05-26T17:12:34.365Z,3.87
2019-05-26T17:17:40.338Z,3.52
2019-05-26T17:22:46.867Z,4.53
2019-05-26T17:27:52.749Z,7.85
2019-05-26T17:32:58.855Z,4.70
2019-05-26T17:38:05.257Z,4.25
2019-05-26T17:43:11.310Z,6.28
2019-05-26T17:48:17.345Z,2.92
2019-05-26T17:53:23.251Z,16.23
2019-05-26T17:58:29.194Z,93.55
2019-05-26T18:03:35.707Z,72.85
2019-05-26T18:08:41.757Z,24.82
2019-05-26T18:13:47.873Z,11.35
2019-05-26T18:18:53.928Z,44.65
2019-05-26T18:24:00.042Z,37.20
2019-05-26T18:29:06.373Z,14.83
2019-05-26T18:34:12.453Z,37.15
2019-05-26T18:39:18.423Z,23.38
2019-05-26T18:44:24.408Z,11.88
2019-05-26T18:49:30.900Z,24.37
2019-05-26T18:54:36.961Z,9.00
2019-05-26T18:59:43.022Z,27.02
2019-05-26T19:04:48.998Z,143.75
2019-05-26T19:09:54.881Z,204.43
2019-05-26T19:15:00.728Z,226.60
2019-05-26T19:20:16.021Z,134.97
2019-05-26T19:25:17.895Z,42.80
2019-05-26T19:30:23.961Z,31.73
2019-05-26T19:35:29.944Z,16.45
2019-05-26T19:40:36.013Z,15.78
2019-05-26T19:45:41.979Z,11.50
2019-05-26T19:50:47.891Z,11.63
2019-05-26T19:55:53.924Z,11.30
2019-05-26T20:01:00.139Z,41.65
2019-05-26T20:06:06.656Z,9.43
2019-05-26T20:11:12.760Z,7.33
2019-05-26T20:16:18.824Z,9.45
2019-05-26T20:21:24.801Z,8.85
2019-05-26T20:26:30.772Z,6.33
2019-05-26T20:31:36.738Z,7.25
2019-05-26T20:36:42.718Z,6.00
2019-05-26T20:41:48.683Z,6.95
2019-05-26T20:46:54.657Z,9.03
2019-05-26T20:52:00.619Z,7.70
2019-05-26T20:57:06.596Z,15.30
2019-05-26T21:02:12.563Z,5.25
2019-05-26T21:07:18.982Z,4.72
2019-05-26T21:12:24.811Z,4.70
2019-05-26T21:17:30.902Z,4.10
2019-05-26T21:22:36.865Z,4.12
2019-05-26T21:27:42.723Z,3.52
2019-05-26T21:32:48.700Z,3.75
2019-05-26T21:37:54.871Z,4.72
2019-05-26T21:43:00.637Z,3.90
2019-05-26T21:48:06.811Z,6.90
2019-05-26T21:53:12.697Z,5.45
2019-05-26T21:58:18.555Z,4.70
2019-05-26T22:03:24.519Z,4.00
2019-05-26T22:08:30.321Z,4.37
2019-05-26T22:13:36.668Z,4.37
2019-05-26T22:18:42.537Z,4.65
2019-05-26T22:23:48.405Z,4.70
2019-05-26T22:28:54.380Z,4.87
2019-05-26T22:34:00.175Z,4.72
2019-05-26T22:39:07.780Z,4.35
2019-05-26T22:44:13.722Z,4.92
2019-05-26T22:49:19.594Z,4.92
2019-05-26T22:54:25.455Z,4.40
2019-05-26T22:59:31.326Z,4.72
2019-05-26T23:04:37.230Z,5.08
2019-05-26T23:09:42.962Z,4.70
2019-05-26T23:14:48.829Z,4.33
2019-05-26T23:19:54.701Z,4.37
2019-05-26T23:25:00.566Z,4.03
2019-05-26T23:30:08.690Z,4.70
2019-05-26T23:35:15.274Z,4.25
2019-05-26T23:40:21.147Z,5.15
2019-05-26T23:45:27.117Z,5.45
2019-05-26T23:50:32.986Z,4.15
2019-05-26T23:55:38.897Z,4.30
